createdAt,value
2022-12-01T00:00:10.160Z,2.18
2022-12-01T00:05:31.724Z,2.16
2022-12-01T00:10:42.114Z,2.14
2022-12-01T00:16:01.401Z,2.14
2022-12-01T00:21:20.571Z,2.11
2022-12-01T00:26:39.904Z,2.14
2022-12-01T00:31:59.544Z,2.16
2022-12-01T00:37:19.185Z,2.18
2022-12-01T00:42:38.700Z,2.21
2022-12-01T00:47:57.645Z,2.24
2022-12-01T00:53:16.956Z,2.22
2022-12-01T00:58:35.555Z,2.3
2022-12-01T01:03:54.757Z,2.32
2022-12-01T01:09:13.780Z,2.32
2022-12-01T01:14:33.242Z,2.28
2022-12-01T01:19:53.140Z,2.29
2022-12-01T01:25:12.226Z,2.28
2022-12-01T01:30:32.052Z,2.26
2022-12-01T01:35:51.338Z,2.3
2022-12-01T01:41:10.845Z,2.29
2022-12-01T01:46:30.056Z,2.29
2022-12-01T01:51:49.221Z,2.32
2022-12-01T01:57:08.726Z,2.34
2022-12-01T02:02:28.251Z,2.36
2022-12-01T02:07:47.381Z,2.4
2022-12-01T02:13:06.825Z,2.36
2022-12-01T02:18:25.931Z,2.39
2022-12-01T02:23:45.513Z,2.39
2022-12-01T02:29:05.279Z,2.36
2022-12-01T02:34:24.110Z,2.32
2022-12-01T02:39:43.573Z,2.3
2022-12-01T02:45:03.236Z,2.3
2022-12-01T02:50:22.720Z,2.28
2022-12-01T02:55:42.071Z,2.29
2022-12-01T03:01:01.741Z,2.28
2022-12-01T03:06:20.960Z,2.25
2022-12-01T03:11:39.880Z,2.21
2022-12-01T03:16:59.338Z,2.21
2022-12-01T03:22:18.301Z,2.18
2022-12-01T03:27:37.580Z,2.16
2022-12-01T03:32:57.225Z,2.11
2022-12-01T03:38:16.983Z,2.15
2022-12-01T03:43:36.382Z,2.15
2022-12-01T03:48:56.180Z,2.14
2022-12-01T03:54:16.136Z,2.16
2022-12-01T03:59:35.218Z,2.16
2022-12-01T04:04:54.398Z,2.15
2022-12-01T04:10:13.562Z,2.15
2022-12-01T04:15:33.400Z,2.15
2022-12-01T04:20:52.973Z,2.15
2022-12-01T04:26:15.688Z,2.21
2022-12-01T04:31:31.728Z,2.21
2022-12-01T04:36:51.175Z,2.19
2022-12-01T04:42:10.709Z,2.15
2022-12-01T04:47:29.889Z,2.19
2022-12-01T04:52:49.556Z,2.18
2022-12-01T04:58:08.587Z,2.19
2022-12-01T05:03:27.453Z,2.18
2022-12-01T05:08:47.149Z,2.16
2022-12-01T05:14:06.769Z,2.21
2022-12-01T05:19:25.969Z,2.22
2022-12-01T05:24:45.067Z,2.18
2022-12-01T05:30:04.380Z,2.21
2022-12-01T05:35:23.316Z,2.19
2022-12-01T05:35:48.361Z,2.34
2022-12-01T05:41:07.197Z,2.16
2022-12-01T05:46:26.278Z,2.15
2022-12-01T05:51:45.063Z,2.14
2022-12-01T05:57:03.900Z,2.11
2022-12-01T06:02:23.366Z,2.08
2022-12-01T06:07:42.370Z,2.06
2022-12-01T06:13:01.371Z,2.08
2022-12-01T06:18:21.206Z,2.1
2022-12-01T06:23:48.729Z,2.08
2022-12-01T06:29:00.276Z,2.08
2022-12-01T06:34:19.343Z,2.1
2022-12-01T06:39:38.244Z,2.11
2022-12-01T06:44:57.739Z,2.1
2022-12-01T06:50:16.977Z,2.11
2022-12-01T06:55:36.696Z,2.15
2022-12-01T07:00:56.444Z,2.18
2022-12-01T07:06:16.010Z,2.19
2022-12-01T07:11:35.423Z,2.19
2022-12-01T07:16:55.216Z,2.19
2022-12-01T07:22:14.693Z,2.19
2022-12-01T07:27:33.794Z,2.21
2022-12-01T07:32:52.852Z,2.24
2022-12-01T07:38:11.956Z,2.24
2022-12-01T07:43:31.253Z,2.28
2022-12-01T07:48:50.577Z,2.33
2022-12-01T07:54:10.036Z,2.35
2022-12-01T07:59:29.306Z,2.4
2022-12-01T08:04:48.982Z,2.46
2022-12-01T08:10:08.678Z,2.53
2022-12-01T08:15:28.461Z,2.59
2022-12-01T08:20:47.300Z,2.67
2022-12-01T08:26:06.110Z,2.75
2022-12-01T08:31:25.682Z,2.81
2022-12-01T08:36:44.748Z,2.88
2022-12-01T08:42:04.581Z,2.93
2022-12-01T08:47:24.204Z,3.01
2022-12-01T08:52:43.328Z,3.09
2022-12-01T08:58:02.714Z,3.18
2022-12-01T09:03:22.271Z,3.27
2022-12-01T09:08:41.210Z,3.42
2022-12-01T09:14:00.611Z,3.49
2022-12-01T09:19:24.446Z,3.56
2022-12-01T09:24:39.155Z,3.6
2022-12-01T09:29:58.890Z,3.72
2022-12-01T09:35:22.088Z,3.91
2022-12-01T09:40:36.745Z,4.14
2022-12-01T09:45:55.882Z,4.14
2022-12-01T09:51:14.959Z,4.08
2022-12-01T09:56:34.733Z,4.04
2022-12-01T10:01:54.365Z,4.1
2022-12-01T10:07:13.742Z,4.16
2022-12-01T10:12:33.315Z,4.28
2022-12-01T10:17:52.840Z,4.42
2022-12-01T10:23:11.679Z,4.55
2022-12-01T10:28:30.559Z,4.73
2022-12-01T10:33:49.855Z,5.01
2022-12-01T10:39:09.126Z,5.75
2022-12-01T10:44:28.773Z,5.79
2022-12-01T10:49:48.649Z,5.46
2022-12-01T10:55:07.816Z,5.07
2022-12-01T11:00:57.813Z,4.88
2022-12-01T11:05:46.041Z,4.9
2022-12-01T11:11:06.311Z,5.09
2022-12-01T11:16:25.462Z,5.16
2022-12-01T11:21:44.753Z,5.31
2022-12-01T11:27:03.629Z,5.34
2022-12-01T11:32:23.160Z,5.23
2022-12-01T11:37:42.089Z,5.24
2022-12-01T11:43:01.246Z,5.2
2022-12-01T11:48:20.313Z,5.24
2022-12-01T11:53:39.331Z,5.47
2022-12-01T11:58:59.035Z,5.85
2022-12-01T12:04:18.242Z,6.49
2022-12-01T12:09:41.821Z,7.01
2022-12-01T12:14:57.292Z,6.83
2022-12-01T12:20:16.658Z,6.4
2022-12-01T12:25:35.832Z,5.97
2022-12-01T12:30:55.454Z,5.74
2022-12-01T12:36:15.151Z,5.81
2022-12-01T12:41:33.956Z,6.01
2022-12-01T12:46:53.163Z,5.99
2022-12-01T12:52:12.906Z,6.08
2022-12-01T12:57:31.696Z,6.1
2022-12-01T13:02:50.989Z,6.2
2022-12-01T13:08:09.833Z,6.28
2022-12-01T13:13:28.670Z,6.29
2022-12-01T13:18:47.374Z,6.18
2022-12-01T13:24:07.001Z,6.05
2022-12-01T13:29:25.773Z,6.05
2022-12-01T13:34:45.276Z,5.98
2022-12-01T13:40:04.992Z,5.94
2022-12-01T13:45:23.945Z,5.94
2022-12-01T13:50:43.362Z,5.92
2022-12-01T13:56:03.083Z,5.89
2022-12-01T14:01:23.073Z,5.91
2022-12-01T14:06:41.737Z,5.88
2022-12-01T14:12:00.638Z,5.82
2022-12-01T14:17:19.719Z,5.77
2022-12-01T14:22:39.352Z,5.71
2022-12-01T14:27:58.874Z,5.62
2022-12-01T14:33:18.547Z,5.52
2022-12-01T14:38:38.345Z,5.44
2022-12-01T14:43:56.722Z,5.36
2022-12-01T14:49:16.138Z,5.3
2022-12-01T14:54:34.961Z,5.24
2022-12-01T14:59:54.533Z,5.17
2022-12-01T15:05:13.546Z,5.13
2022-12-01T15:10:32.766Z,5.06
2022-12-01T15:15:51.634Z,5.01
2022-12-01T15:21:11.079Z,4.94
2022-12-01T15:26:30.442Z,4.94
2022-12-01T15:31:49.452Z,4.88
2022-12-01T15:37:08.758Z,4.83
2022-12-01T15:42:28.252Z,4.8
2022-12-01T15:47:47.885Z,4.73
2022-12-01T15:53:07.591Z,4.71
2022-12-01T15:58:26.777Z,4.67
2022-12-01T16:03:45.780Z,4.62
2022-12-01T16:09:05.539Z,4.59
2022-12-01T16:14:24.343Z,4.57
2022-12-01T16:19:43.730Z,4.51
2022-12-01T16:25:02.783Z,4.48
2022-12-01T16:30:22.303Z,4.48
2022-12-01T16:35:41.427Z,4.52
2022-12-01T16:41:00.347Z,4.51
2022-12-01T16:46:19.570Z,4.54
2022-12-01T16:51:54.600Z,4.48
2022-12-01T16:56:58.693Z,4.48
2022-12-01T17:02:19.190Z,4.44
2022-12-01T17:07:38.783Z,4.48
2022-12-01T17:12:57.076Z,4.46
2022-12-01T17:18:16.335Z,4.44
2022-12-01T17:23:35.933Z,4.44
2022-12-01T17:28:55.317Z,4.41
2022-12-01T17:34:14.441Z,4.38
2022-12-01T17:39:33.516Z,4.36
2022-12-01T17:44:52.859Z,4.33
2022-12-01T17:50:12.041Z,4.34
2022-12-01T17:55:31.280Z,4.3
2022-12-01T18:00:50.810Z,4.27
2022-12-01T18:06:10.097Z,4.21
2022-12-01T18:11:29.190Z,4.21
2022-12-01T18:16:48.253Z,4.21
2022-12-01T18:22:07.670Z,4.21
2022-12-01T18:27:26.616Z,4.17
2022-12-01T18:32:45.497Z,4.16
2022-12-01T18:38:05.143Z,4.11
2022-12-01T18:43:24.619Z,4.01
2022-12-01T18:48:44.045Z,4.03
2022-12-01T18:54:03.233Z,4.03
2022-12-01T18:59:22.615Z,4.07
2022-12-01T19:04:42.033Z,4.13
2022-12-01T19:10:00.785Z,4.13
2022-12-01T19:15:27.827Z,4.08
2022-12-01T19:20:38.738Z,4.13
2022-12-01T19:25:58.165Z,4.16
2022-12-01T19:31:17.544Z,4.17
2022-12-01T19:36:36.869Z,4.14
2022-12-01T19:41:56.299Z,4.08
2022-12-01T19:47:20.612Z,4.1
2022-12-01T19:52:35.533Z,4.04
2022-12-01T19:57:54.493Z,3.97
2022-12-01T20:03:14.248Z,3.93
2022-12-01T20:08:35.823Z,3.9
2022-12-01T20:13:53.283Z,3.93
2022-12-01T20:19:12.610Z,3.91
2022-12-01T20:24:31.943Z,3.9
2022-12-01T20:29:50.801Z,3.94
2022-12-01T20:35:10.541Z,3.99
2022-12-01T20:40:29.407Z,4
2022-12-01T20:45:49.155Z,4
2022-12-01T20:51:08.402Z,4
2022-12-01T20:56:27.306Z,4
2022-12-01T21:01:46.898Z,3.99
2022-12-01T21:07:06.414Z,3.97
2022-12-01T21:12:25.841Z,3.97
2022-12-01T21:17:44.954Z,3.94
2022-12-01T21:23:03.793Z,3.91
2022-12-01T21:28:23.221Z,3.9
2022-12-01T21:33:42.124Z,3.89
2022-12-01T21:39:01.898Z,3.89
2022-12-01T21:44:21.067Z,3.87
2022-12-01T21:49:40.704Z,3.9
2022-12-01T21:55:00.087Z,3.89
2022-12-01T22:00:19.193Z,3.89
2022-12-01T22:06:01.366Z,3.85
2022-12-01T22:10:57.699Z,3.83
2022-12-01T22:16:17.141Z,3.8
2022-12-01T22:21:36.803Z,3.79
2022-12-01T22:26:55.403Z,3.82
2022-12-01T22:32:15.129Z,3.79
2022-12-01T22:37:35.199Z,3.76
2022-12-01T22:42:54.494Z,3.79
2022-12-01T22:48:14.249Z,3.77
2022-12-01T22:53:33.446Z,3.73
2022-12-01T22:58:52.891Z,3.75
2022-12-01T23:04:13.376Z,3.73
2022-12-01T23:09:31.921Z,3.69
2022-12-01T23:14:51.222Z,3.68
2022-12-01T23:20:10.784Z,3.66
2022-12-01T23:25:55.229Z,3.65
2022-12-01T23:31:14.410Z,3.6
2022-12-01T23:36:33.587Z,3.62
2022-12-01T23:41:52.795Z,3.58
2022-12-01T23:47:12.507Z,3.54
2022-12-01T23:52:32.084Z,3.51
2022-12-01T23:57:51.078Z,3.48
